Aérodrome :
LOGIN :

S'inscrire | Disclaimer

   EN    FR    IT 

 










Légende :    VFR   VFR Marginal   IFR   IFR Intensif   IFR Très Intensif
Visi : 
Plafond : 
>= 8 km
>= 3000ft
5 à 8 km
1000 à 3000 ft
1500m à 5 km
500 à 1000 ft
800 à 1500m
200 à 500 ft
< 800m
< 200 ft
Symboles :   Orages  Brouillard  Fortes neiges  Fortes précipitations  Vent > 20 kt
SIGMETs :   Divers  Orages  Givrage  Turbulence  Onde Orograph.  Cendres Volcan.







- Altitude de l'aérodrome : 160 ft
- Code IATA : LRT
- Voir les cartes d'approche


LFRH - Lorient Lann Bihoue

DERNIER METAR :
  • 170930Z AUTO 11004KT 080V150 9999 FEW035 15/13 Q1018 NOSIG

METARs EXPIRÉS :
  • 170900Z AUTO 08004KT 9999 FEW030 13/13 Q1019 NOSIG
  • 170830Z AUTO 10004KT 080V180 9000 FEW001 11/11 Q1018 NOSIG
  • 170800Z AUTO 09004KT 060V120 7000 FEW001 11/11 Q1018 NOSIG
  • 170730Z AUTO 08004KT 040V130 4400 BR FEW002 10/09 Q1018 BECMG 5000 BR
  • 170700Z AUTO 07004KT 1100 0600 R25/0700D R07/1200D BCFG FEW024 08/08 Q1018 BECMG 5000 BR

TAF AMD TAF LFRH
Valide du 17 à 06h jusqu'au 18 à 06h UTC


170531Z 1706/1806 08005KT 5000 BR SCT020 SCT030
PROB30
TEMPO 1706/1708 0800 BCFG
BECMG 1710/1712 9999 NSW OVC030
TEMPO 1720/1723 CAVOK
PROB30
TEMPO 1800/1806 5000 RA
Pas de NOTAMs connus pour ce terrain.



MET'MAP, la Météo Aéronautique d'un coup d'oeil ! - Copyright ORBIFLY Décembre 2007 - Disclaimer

ORBIFLY MET'MAP TEAM :

Programmation & Développement : Alexandra Zaïnal
Conception & Développement : Baudouin d'Aumeries
Co-Programmation & Développement : Marc-Olivier Méhu
Soutien technique & logistique : Manuel Goepfert

Contact : metmap@orbifly.com




SOURCES & CREDITS :

   NOAA